Kotakoli Airport


Codes: FZFP/KLI
Name: Kotakoli Airport
City:
Country: Congo [DRC]
Elevation: 1801 ft.

Photos at Kotakoli Airport


   Photos courtesy of SpottingLog. You can add your own sightings and photos by signing up for a free trial today.



No photos found.

Weather at Kotakoli Airport


Time (UTC)DescriptionTempratureWindCloud coverageVisibilityPressureHumidity
23-May-2024 21:00Moderate Rain22°C2 mph, NW78%10000m1011hPa98%
24-May-2024 00:00Light Rain22°C0 mph, NE89%10000m1011hPa98%
24-May-2024 03:00Overcast Clouds21°C2 mph, SW99%10000m1012hPa98%
24-May-2024 06:00Overcast Clouds23°C0 mph, E85%10000m1014hPa93%
24-May-2024 09:00Scattered Clouds31°C2 mph, SE42%10000m1013hPa54%
24-May-2024 12:00Light Rain31°C4 mph, S44%10000m1009hPa52%
24-May-2024 15:00Light Rain27°C2 mph, S93%10000m1009hPa70%
24-May-2024 18:00Broken Clouds24°C2 mph, SW65%10000m1010hPa88%
24-May-2024 21:00Light Rain22°C2 mph, SE94%10000m1013hPa94%
25-May-2024 00:00Light Rain22°C2 mph, SE96%10000m1012hPa94%
25-May-2024 03:00Light Rain21°C2 mph, N100%10000m1013hPa98%
25-May-2024 06:00Light Rain22°C0 mph, W100%10000m1014hPa97%
25-May-2024 09:00Light Rain27°C4 mph, W100%10000m1015hPa69%
25-May-2024 12:00Overcast Clouds30°C4 mph, NW96%10000m1012hPa56%
25-May-2024 15:00Light Rain27°C2 mph, NW90%10000m1011hPa71%
25-May-2024 18:00Broken Clouds23°C2 mph, W73%10000m1012hPa90%
25-May-2024 21:00Broken Clouds22°C2 mph, W68%10000m1013hPa95%
26-May-2024 00:00Broken Clouds22°C2 mph, NE81%10000m1013hPa93%
26-May-2024 03:00Overcast Clouds22°C0 mph, E100%10000m1013hPa94%
26-May-2024 06:00Overcast Clouds23°C2 mph, SE100%10000m1014hPa86%
26-May-2024 09:00Overcast Clouds32°C2 mph, SE93%10000m1014hPa50%
26-May-2024 12:00Broken Clouds36°C0 mph, SE79%10000m1010hPa37%
26-May-2024 15:00Overcast Clouds28°C4 mph, NE94%10000m1010hPa65%
26-May-2024 18:00Light Rain23°C2 mph, W92%10000m1012hPa95%
26-May-2024 21:00Light Rain22°C2 mph, SW97%10000m1013hPa98%
27-May-2024 00:00Light Rain22°C0 mph, N91%10000m1012hPa98%
27-May-2024 03:00Overcast Clouds22°C2 mph, S97%10000m1012hPa98%
27-May-2024 06:00Overcast Clouds24°C2 mph, SE97%10000m1013hPa92%
27-May-2024 09:00Overcast Clouds33°C2 mph, SE86%10000m1012hPa50%
27-May-2024 12:00Overcast Clouds32°C2 mph, NE91%10000m1010hPa52%
27-May-2024 15:00Overcast Clouds32°C2 mph, N99%10000m1009hPa49%
27-May-2024 18:00Overcast Clouds26°C2 mph, NW90%10000m1009hPa73%
27-May-2024 21:00Overcast Clouds23°C2 mph, S86%10000m1012hPa87%
28-May-2024 00:00Light Rain23°C0 mph, SW75%10000m1011hPa91%
28-May-2024 03:00Overcast Clouds22°C0 mph, SW88%10000m1011hPa93%
28-May-2024 06:00Broken Clouds25°C2 mph, SE60%10000m1013hPa79%
28-May-2024 09:00Scattered Clouds33°C4 mph, S49%10000m1012hPa47%
28-May-2024 12:00Broken Clouds36°C4 mph, S72%10000m1009hPa36%
28-May-2024 15:00Overcast Clouds35°C2 mph, SE96%10000m1007hPa38%
28-May-2024 18:00Light Rain26°C2 mph, N93%10000m1009hPa74%